Time;durP1;ratioP1;P1;durP2;ratioP2;P2;SDS_P1;SDS_P2;PMS_P1;PMS_P2;Temp;Humidity;BMP_temperature;BMP_pressure;BME280_temperature;BME280_humidity;BME280_pressure;Samples;Min_cycle;Max_cycle;Signal;HPM_P1;HPM_P2
2021/10/10 00:02:22;;;;;;;68.55;37.03;;;256.60;2252.80;;;;;;4751192;30;20036;-82
2021/10/10 00:05:50;;;;;;;70.10;41.17;;;256.50;2252.80;;;;;;4745984;30;20478;-82
2021/10/10 00:19:36;;;;;;;37.30;25.05;;;256.50;2252.80;;;;;;4748225;30;20051;-81
2021/10/10 00:23:14;;;;;;;30.98;22.77;;;256.40;2252.80;;;;;;4709530;30;20859;-81
2021/10/10 00:26:55;;;;;;;26.17;19.55;;;256.50;2252.80;;;;;;4733473;30;20053;-84
2021/10/10 00:30:22;;;;;;;23.08;17.15;;;256.50;2252.80;;;;;;4704289;30;20041;-83
2021/10/10 00:33:53;;;;;;;13.07;10.38;;;256.50;2252.80;;;;;;4694087;30;20041;-84
2021/10/10 00:37:29;;;;;;;15.23;9.35;;;256.60;2252.80;;;;;;4646775;30;20051;-82
2021/10/10 00:40:46;;;;;;;23.15;14.52;;;256.60;2252.80;;;;;;4691394;30;20092;-84
2021/10/10 00:43:35;;;;;;;12.93;8.88;;;256.70;2252.80;;;;;;4786210;30;20049;-82
2021/10/10 00:46:50;;;;;;;10.27;7.30;;;256.70;2252.80;;;;;;4721505;30;20044;-81
2021/10/10 00:50:17;;;;;;;10.73;7.97;;;256.70;2252.80;;;;;;4750484;30;20421;-80
2021/10/10 00:53:44;;;;;;;17.67;11.55;;;256.50;2252.80;;;;;;4741441;30;20036;-84
2021/10/10 00:57:11;;;;;;;14.48;11.38;;;256.60;2252.80;;;;;;4733958;30;20066;-85
2021/10/10 00:59:55;;;;;;;23.38;14.98;;;256.70;2252.80;;;;;;4759928;30;20052;-82
2021/10/10 01:02:58;;;;;;;22.05;15.98;;;256.60;2252.80;;;;;;4736103;30;20044;-82
2021/10/10 01:06:07;;;;;;;13.07;9.23;;;256.40;2252.80;;;;;;4736601;30;20040;-82
2021/10/10 01:09:42;;;;;;;11.23;8.60;;;256.50;2252.80;;;;;;4768240;30;20085;-81
2021/10/10 01:12:51;;;;;;;11.52;8.98;;;256.60;2252.80;;;;;;4768058;30;20044;-79
2021/10/10 01:16:04;;;;;;;10.05;7.90;;;256.60;2252.80;;;;;;4755517;29;20087;-82
2021/10/10 01:18:53;;;;;;;10.52;7.75;;;256.50;2252.80;;;;;;4822144;29;20035;-80
2021/10/10 01:22:25;;;;;;;12.73;9.82;;;256.60;2252.80;;;;;;4819299;29;20042;-82
2021/10/10 01:25:52;;;;;;;14.40;9.90;;;256.70;2252.80;;;;;;4859249;29;20073;-80
2021/10/10 01:29:21;;;;;;;62.58;28.95;;;256.60;2252.80;;;;;;4875821;28;20105;-86
2021/10/10 01:33:03;;;;;;;35.65;17.63;;;256.60;2252.80;;;;;;4875460;29;20044;-84
2021/10/10 01:36:33;;;;;;;10.43;6.35;;;256.70;2252.80;;;;;;4876966;29;20049;-84
2021/10/10 01:39:54;;;;;;;7.45;5.78;;;256.60;2252.80;;;;;;4892702;29;20509;-84
2021/10/10 01:43:02;;;;;;;9.88;6.50;;;256.60;2252.80;;;;;;4858670;29;20037;-82
2021/10/10 01:46:19;;;;;;;9.77;7.07;;;256.50;2252.80;;;;;;4823014;29;20038;-82
2021/10/10 01:49:16;;;;;;;15.93;10.38;;;256.40;2252.80;;;;;;4800432;29;20565;-81
2021/10/10 01:52:46;;;;;;;10.50;6.95;;;256.20;2252.80;;;;;;4733782;30;20048;-83
2021/10/10 01:56:12;;;;;;;11.90;7.97;;;256.40;2252.80;;;;;;4717964;30;20037;-82
2021/10/10 01:59:30;;;;;;;16.08;10.43;;;256.50;2252.80;;;;;;4717807;30;20045;-83
2021/10/10 02:02:56;;;;;;;15.93;10.45;;;256.50;2252.80;;;;;;4717958;30;20060;-83
2021/10/10 02:05:39;;;;;;;19.95;13.00;;;256.60;2252.80;;;;;;4718394;30;20071;-83
2021/10/10 02:08:50;;;;;;;16.38;11.35;;;256.60;2252.80;;;;;;4720993;30;20029;-81
2021/10/10 02:11:40;;;;;;;17.90;10.20;;;256.40;2252.80;;;;;;4742761;30;20079;-83
2021/10/10 02:14:36;;;;;;;;;;;256.50;2252.80;;;;;;4809577;29;20046;-83
2021/10/10 02:17:37;;;;;;;27.42;19.52;;;256.50;2252.80;;;;;;4825132;29;19912;-81
2021/10/10 02:20:16;;;;;;;24.85;15.55;;;256.60;2252.80;;;;;;4843295;29;20162;-81
2021/10/10 02:23:42;;;;;;;15.73;10.75;;;256.70;2252.80;;;;;;4841264;29;20038;-80
2021/10/10 02:27:05;;;;;;;18.60;12.05;;;256.80;2252.80;;;;;;4874123;29;20131;-82
2021/10/10 02:30:31;;;;;;;15.75;10.45;;;256.70;2252.80;;;;;;4954793;28;20116;-82
2021/10/10 02:33:45;;;;;;;14.18;10.52;;;256.70;2252.80;;;;;;4973282;28;20042;-81
2021/10/10 02:36:36;;;;;;;;;;;256.80;2252.80;;;;;;4971909;28;20047;-83
2021/10/10 02:39:52;;;;;;;12.00;7.82;;;256.50;2252.80;;;;;;4975414;28;19930;-83
2021/10/10 02:42:22;;;;;;;8.77;6.63;;;256.70;2252.80;;;;;;4954828;28;20042;-83
2021/10/10 02:45:49;;;;;;;12.38;7.65;;;256.70;2252.80;;;;;;4968550;28;20438;-84
2021/10/10 02:49:02;;;;;;;11.68;8.52;;;256.70;2252.80;;;;;;4945034;28;20031;-84
2021/10/10 02:52:16;;;;;;;17.90;12.38;;;230.90;2252.80;;;;;;4928994;28;20030;-83
2021/10/10 02:55:24;;;;;;;12.52;8.45;;;256.80;2252.80;;;;;;4903999;29;20036;-83
2021/10/10 02:58:15;;;;;;;11.68;8.50;;;256.80;2252.80;;;;;;4917537;29;20396;-85
2021/10/10 03:01:46;;;;;;;19.52;13.90;;;256.70;2252.80;;;;;;4929981;29;20113;-81
2021/10/10 03:04:59;;;;;;;20.38;11.77;;;256.80;2252.80;;;;;;4926905;28;20070;-84
2021/10/10 03:08:10;;;;;;;16.25;10.32;;;256.60;2252.80;;;;;;4955259;29;20116;-83
2021/10/10 03:11:27;;;;;;;10.93;5.78;;;256.70;2252.80;;;;;;4911923;29;20035;-83
2021/10/10 03:14:36;;;;;;;10.40;6.90;;;256.80;2252.80;;;;;;4948593;29;20121;-81
2021/10/10 03:17:42;;;;;;;14.75;9.75;;;256.70;2252.80;;;;;;4897266;29;20052;-83
2021/10/10 03:21:13;;;;;;;20.25;10.48;;;256.60;2252.80;;;;;;4896026;29;20040;-82
2021/10/10 03:24:16;;;;;;;19.15;11.93;;;256.80;2252.80;;;;;;4907640;29;20056;-82
2021/10/10 03:27:25;;;;;;;14.18;9.32;;;256.80;2252.80;;;;;;4912937;29;20037;-81
2021/10/10 03:30:14;;;;;;;14.70;8.40;;;256.70;2252.80;;;;;;4924296;29;20029;-79
2021/10/10 03:33:28;;;;;;;12.05;8.35;;;256.80;2252.80;;;;;;4889941;29;20044;-81
2021/10/10 03:36:34;;;;;;;8.23;5.53;;;256.90;2252.80;;;;;;4897349;29;20060;-82
2021/10/10 03:39:26;;;;;;;7.75;4.97;;;256.80;2252.80;;;;;;4924932;29;20039;-81
2021/10/10 03:42:20;;;;;;;7.57;4.90;;;256.80;2252.80;;;;;;4935745;29;20032;-82
2021/10/10 03:45:00;;;;;;;;;;;256.90;2252.80;;;;;;4920381;29;20087;-81
2021/10/10 03:47:31;;;;;;;10.13;6.65;;;281.60;2278.40;;;;;;4919832;29;20359;-81
2021/10/10 03:50:36;;;;;;;13.13;8.80;;;256.90;2252.80;;;;;;4919998;29;20048;-81
2021/10/10 03:57:06;;;;;;;8.52;5.10;;;256.90;2252.80;;;;;;4993018;28;20425;-84
2021/10/10 04:00:44;;;;;;;7.32;4.15;;;256.90;2252.80;;;;;;4911299;29;20072;-84
2021/10/10 04:07:28;;;;;;;8.68;5.63;;;281.60;2278.40;;;;;;4954201;29;20074;-82
2021/10/10 04:23:40;;;;;;;7.07;5.25;;;256.90;2252.80;;;;;;4857815;29;20072;-83
2021/10/10 04:30:17;;;;;;;8.30;4.55;;;256.90;2252.80;;;;;;4915966;29;20096;-79
2021/10/10 04:37:21;;;;;;;8.27;5.55;;;256.90;2252.80;;;;;;4932782;29;20587;-81
2021/10/10 04:46:57;;;;;;;9.43;6.35;;;281.60;2278.40;;;;;;5002864;28;20060;-78
2021/10/10 04:50:22;;;;;;;;;;;;;;;;;;;;;
2021/10/10 04:52:58;;;;;;;9.35;7.10;;;281.60;2278.40;;;;;;4948063;28;20062;-82
2021/10/10 04:56:14;;;;;;;8.20;6.25;;;282.00;2278.40;;;;;;4955731;28;20491;-82
2021/10/10 04:59:26;;;;;;;6.68;5.07;;;281.70;2278.40;;;;;;4970369;28;20034;-83
2021/10/10 05:02:17;;;;;;;7.15;5.20;;;281.80;2278.40;;;;;;4972300;28;20529;-82
2021/10/10 05:05:26;;;;;;;6.15;2.95;;;281.80;2278.40;;;;;;4939720;28;20042;-83
2021/10/10 05:08:36;;;;;;;5.85;3.25;;;256.90;2252.80;;;;;;4972174;28;20065;-85
2021/10/10 05:11:31;;;;;;;11.68;8.50;;;256.80;2252.80;;;;;;4959355;28;20394;-84
2021/10/10 05:14:55;;;;;;;9.68;7.53;;;256.90;2252.80;;;;;;4896435;29;20041;-81
2021/10/10 05:17:47;;;;;;;;;;;256.80;2252.80;;;;;;4853553;29;20053;-83
2021/10/10 05:20:35;;;;;;;7.15;4.13;;;256.90;2252.80;;;;;;4859036;29;19944;-84
2021/10/10 05:23:26;;;;;;;6.40;3.97;;;256.90;2252.80;;;;;;4840259;29;20037;-83
2021/10/10 05:26:35;;;;;;;7.13;4.97;;;281.60;2278.40;;;;;;4840313;29;20063;-83
2021/10/10 05:29:51;;;;;;;9.73;7.35;;;281.60;2278.40;;;;;;4852942;29;20029;-81
2021/10/10 05:33:11;;;;;;;13.75;9.93;;;281.70;2278.40;;;;;;4879504;29;20036;-83
2021/10/10 05:36:17;;;;;;;18.52;13.15;;;281.70;2278.40;;;;;;4895992;29;20040;-83
2021/10/10 05:39:33;;;;;;;18.02;14.80;;;281.70;2278.40;;;;;;4889779;29;20055;-83
2021/10/10 05:42:34;;;;;;;14.30;11.05;;;281.70;2278.40;;;;;;4875901;29;20068;-84
2021/10/10 05:45:28;;;;;;;15.07;12.05;;;281.70;2278.40;;;;;;4882490;29;20064;-83
2021/10/10 05:48:21;;;;;;;16.92;12.95;;;281.70;2278.40;;;;;;4880533;29;20033;-84
2021/10/10 05:51:11;;;;;;;13.70;12.27;;;281.70;2278.40;;;;;;4885972;29;20035;-81
2021/10/10 05:54:29;;;;;;;10.43;7.88;;;281.60;2278.40;;;;;;4957225;28;20469;-80
2021/10/10 05:57:50;;;;;;;14.10;11.23;;;281.60;2278.40;;;;;;4971865;28;20128;-85
2021/10/10 06:00:48;;;;;;;14.43;11.25;;;256.90;2252.80;;;;;;4941259;28;20078;-83
2021/10/10 06:04:03;;;;;;;11.00;7.82;;;256.90;2252.80;;;;;;4971639;28;20038;-84
2021/10/10 06:07:21;;;;;;;9.63;7.40;;;256.90;2252.80;;;;;;4924105;29;20039;-83
2021/10/10 06:10:47;;;;;;;16.20;12.52;;;281.60;2278.40;;;;;;4877122;29;20037;-81
2021/10/10 06:13:37;;;;;;;21.73;15.40;;;281.70;2278.40;;;;;;4861448;29;20037;-83
2021/10/10 06:16:45;;;;;;;22.80;16.65;;;281.80;2278.40;;;;;;4858335;29;20037;-83
2021/10/10 06:19:52;;;;;;;23.58;17.70;;;281.90;2278.40;;;;;;4876889;29;20052;-81
2021/10/10 06:22:23;;;;;;;29.77;22.90;;;281.90;2278.40;;;;;;4876951;29;20068;-81
2021/10/10 06:28:53;;;;;;;31.90;20.55;;;281.90;2278.40;;;;;;4894606;29;20035;-83
2021/10/10 06:32:07;;;;;;;22.52;16.67;;;281.80;2278.40;;;;;;4876840;29;20151;-83
2021/10/10 06:35:24;;;;;;;26.15;17.98;;;281.80;2278.40;;;;;;4839896;29;20057;-82
2021/10/10 06:38:39;;;;;;;21.73;16.05;;;282.00;2278.40;;;;;;4852696;29;20114;-81
2021/10/10 06:41:25;;;;;;;66.05;37.90;;;282.00;2278.40;;;;;;4948356;28;20043;-80
2021/10/10 06:44:19;;;;;;;139.35;77.68;;;282.10;2278.40;;;;;;4968909;28;20126;-82
2021/10/10 06:47:08;;;;;;;97.38;58.17;;;282.00;2278.40;;;;;;4975404;28;20090;-82
2021/10/10 06:49:55;;;;;;;99.45;57.72;;;282.10;2278.40;;;;;;4975177;28;20039;-82
2021/10/10 06:52:24;;;;;;;69.00;43.17;;;282.10;2278.40;;;;;;4975379;28;20118;-83
2021/10/10 06:54:53;;;;;;;61.72;44.90;;;282.10;2278.40;;;;;;4990384;28;20043;-80
2021/10/10 06:57:20;;;;;;;43.80;35.75;;;282.10;2278.40;;;;;;4974940;28;20042;-81
2021/10/10 06:59:46;;;;;;;26.17;20.00;;;282.00;2278.40;;;;;;4974754;28;20023;-82
2021/10/10 07:02:13;;;;;;;18.58;13.45;;;282.00;2278.40;;;;;;4974761;28;20042;-82
2021/10/10 07:04:42;;;;;;;16.80;11.65;;;282.00;2278.40;;;;;;4974693;28;20043;-81
2021/10/10 07:07:10;;;;;;;18.65;13.82;;;282.10;2278.40;;;;;;4972033;28;20112;-82
2021/10/10 07:09:38;;;;;;;25.65;18.90;;;282.00;2278.40;;;;;;4974830;28;20027;-82
2021/10/10 07:12:28;;;;;;;16.38;13.85;;;282.00;2278.40;;;;;;4982124;28;20042;-83
2021/10/10 07:14:55;;;;;;;19.27;13.50;;;282.20;2278.40;;;;;;4993243;28;20506;-82
2021/10/10 07:17:27;;;;;;;24.67;17.83;;;282.20;2278.40;;;;;;4994764;28;20030;-80
2021/10/10 07:26:26;;;;;;;9.98;7.93;;;282.20;2278.40;;;;;;4996473;28;20116;-83
2021/10/10 07:30:13;;;;;;;;;;;;;;;;;;;;;
2021/10/10 07:33:10;;;;;;;19.38;15.82;;;282.20;2278.40;;;;;;5017713;28;20061;-82
2021/10/10 07:36:08;;;;;;;20.08;15.70;;;282.20;2278.40;;;;;;5034182;28;20454;-80
2021/10/10 07:42:13;;;;;;;11.43;9.77;;;282.20;2278.40;;;;;;4992876;28;20593;-81
2021/10/10 07:44:54;;;;;;;11.23;9.10;;;282.20;2278.40;;;;;;4977681;28;20034;-80
2021/10/10 07:48:12;;;;;;;13.55;9.13;;;282.20;2278.40;;;;;;4993552;28;20022;-83
2021/10/10 07:50:31;;;;;;;12.05;8.90;;;282.10;2278.40;;;;;;4991058;28;20034;-81
2021/10/10 07:52:58;;;;;;;12.73;10.73;;;282.20;2278.40;;;;;;4977261;28;20067;-84
2021/10/10 07:55:27;;;;;;;11.60;8.68;;;282.30;2278.40;;;;;;4977360;28;20038;-83
2021/10/10 07:57:54;;;;;;;13.88;9.50;;;282.30;2278.40;;;;;;4976838;28;20474;-80
2021/10/10 08:01:24;;;;;;;;;;;;;;;;;;;;;
2021/10/10 08:04:01;;;;;;;18.35;14.55;;;282.40;2278.40;;;;;;4962688;28;20031;-82
2021/10/10 08:07:17;;;;;;;28.88;21.33;;;282.50;2278.40;;;;;;4992967;28;20038;-82
2021/10/10 08:10:00;;;;;;;29.98;24.40;;;282.50;2278.40;;;;;;4934868;28;20090;-83
2021/10/10 08:12:28;;;;;;;30.92;22.73;;;282.50;2278.40;;;;;;5007671;28;20500;-81
2021/10/10 08:14:54;;;;;;;19.60;16.92;;;282.50;2278.40;;;;;;5000518;28;20030;-81
2021/10/10 08:17:20;;;;;;;19.15;15.45;;;282.40;2278.40;;;;;;5016584;28;20027;-78
2021/10/10 08:20:30;;;;;;;17.55;13.57;;;282.50;2278.40;;;;;;5000355;28;20036;-82
2021/10/10 08:23:47;;;;;;;24.63;16.58;;;282.50;2278.40;;;;;;5022091;28;20033;-81
2021/10/10 08:26:57;;;;;;;26.25;18.80;;;282.30;2278.40;;;;;;5015716;28;20047;-81
2021/10/10 08:29:53;;;;;;;22.77;15.05;;;282.40;2278.40;;;;;;5028369;28;20041;-78
2021/10/10 08:35:26;;;;;;;18.50;13.90;;;282.40;2278.40;;;;;;4973011;28;20035;-79
2021/10/10 08:37:58;;;;;;;30.15;22.83;;;282.40;2278.40;;;;;;5023783;28;20029;-81
2021/10/10 08:40:25;;;;;;;35.88;26.92;;;282.30;2278.40;;;;;;5016418;28;20068;-79
2021/10/10 08:42:56;;;;;;;50.83;40.25;;;282.30;2278.40;;;;;;5016550;28;20029;-78
2021/10/10 08:45:29;;;;;;;34.20;24.50;;;282.20;2278.40;;;;;;5016346;28;20455;-75
2021/10/10 08:47:55;;;;;;;36.00;25.75;;;282.20;2278.40;;;;;;5016468;28;20071;-77
2021/10/10 08:50:52;;;;;;;35.92;25.92;;;282.50;2278.40;;;;;;5016054;28;20033;-82
2021/10/10 08:53:38;;;;;;;36.90;24.90;;;282.20;2278.40;;;;;;5015877;28;20036;-78
2021/10/10 08:56:39;;;;;;;29.55;20.23;;;282.10;2278.40;;;;;;5032287;28;20040;-79
2021/10/10 09:00:12;;;;;;;28.08;19.92;;;282.20;2278.40;;;;;;5026697;28;20481;-78
2021/10/10 09:02:54;;;;;;;18.08;12.75;;;282.20;2278.40;;;;;;5029893;28;20401;-81
2021/10/10 09:05:46;;;;;;;39.53;30.33;;;282.20;2278.40;;;;;;5015385;28;20403;-79
2021/10/10 09:08:17;;;;;;;42.38;29.30;;;307.20;2304.00;;;;;;5015145;28;20044;-86
2021/10/10 09:11:47;;;;;;;30.00;24.20;;;282.10;2278.40;;;;;;4994422;28;20121;-81
2021/10/10 09:14:54;;;;;;;17.45;15.15;;;282.20;2278.40;;;;;;5017026;28;20080;-84
2021/10/10 09:17:22;;;;;;;31.38;24.92;;;282.10;2278.40;;;;;;5015754;28;20493;-81
2021/10/10 09:20:37;;;;;;;32.60;23.02;;;282.00;2278.40;;;;;;5015583;28;20021;-78
2021/10/10 09:23:45;;;;;;;40.20;27.67;;;282.00;2278.40;;;;;;4983449;28;20030;-78
2021/10/10 09:26:11;;;;;;;59.70;44.63;;;282.00;2278.40;;;;;;5032773;28;20037;-74
2021/10/10 09:28:39;;;;;;;31.23;23.17;;;282.10;2278.40;;;;;;5015401;28;20026;-76
2021/10/10 09:31:06;;;;;;;48.67;39.88;;;282.00;2278.40;;;;;;5016024;28;20474;-75
2021/10/10 09:33:56;;;;;;;33.03;26.85;;;282.10;2278.40;;;;;;5033109;28;20026;-77
2021/10/10 09:36:28;;;;;;;53.90;43.33;;;282.10;2278.40;;;;;;5033876;28;20072;-80
2021/10/10 09:41:35;;;;;;;40.83;32.95;;;282.10;2278.40;;;;;;5033097;28;20038;-80
2021/10/10 09:44:34;;;;;;;39.70;30.10;;;282.00;2278.40;;;;;;5015635;28;20030;-76
2021/10/10 09:47:01;;;;;;;48.88;38.60;;;282.30;2278.40;;;;;;5015359;28;20025;-78
2021/10/10 09:49:32;;;;;;;47.95;34.63;;;282.30;2278.40;;;;;;5015501;28;20030;-75
2021/10/10 09:52:07;;;;;;;35.75;26.15;;;282.20;2278.40;;;;;;5033512;28;20065;-75
2021/10/10 09:55:01;;;;;;;24.83;17.70;;;282.30;2278.40;;;;;;5011004;28;20022;-81
2021/10/10 09:58:17;;;;;;;58.05;45.80;;;282.30;2278.40;;;;;;4998335;28;20037;-84
2021/10/10 10:01:10;;;;;;;29.13;24.35;;;282.30;2278.40;;;;;;5015187;28;20029;-86
2021/10/10 10:04:26;;;;;;;40.67;28.75;;;282.20;2278.40;;;;;;5021231;28;20033;-75
2021/10/10 10:06:53;;;;;;;32.17;24.42;;;282.30;2278.40;;;;;;5003536;28;20193;-77
2021/10/10 10:09:19;;;;;;;24.95;19.30;;;282.50;2278.40;;;;;;5014716;28;20033;-79
2021/10/10 10:11:46;;;;;;;26.73;18.40;;;282.10;2278.40;;;;;;5015566;28;20488;-79
2021/10/10 10:14:17;;;;;;;32.80;25.42;;;282.50;2278.40;;;;;;5017393;28;20025;-79
2021/10/10 10:20:18;;;;;;;25.80;19.08;;;282.40;2278.40;;;;;;4985222;28;20116;-81
2021/10/10 10:22:54;;;;;;;25.33;20.05;;;282.50;2278.40;;;;;;5035597;28;20026;-82
2021/10/10 10:25:22;;;;;;;29.80;24.40;;;282.50;2278.40;;;;;;5018267;28;20485;-78
2021/10/10 10:27:49;;;;;;;42.22;35.03;;;282.40;2278.40;;;;;;5019067;28;20056;-77
2021/10/10 10:30:20;;;;;;;28.45;24.45;;;282.40;2278.40;;;;;;5018754;28;20029;-76
2021/10/10 10:32:47;;;;;;;24.92;19.75;;;282.30;2278.40;;;;;;5018954;28;20032;-80
2021/10/10 10:35:16;;;;;;;24.42;20.30;;;282.30;2278.40;;;;;;5019518;28;20033;-78
2021/10/10 10:37:42;;;;;;;24.20;20.92;;;282.30;2278.40;;;;;;5019862;28;20483;-76
2021/10/10 10:40:26;;;;;;;23.73;17.50;;;282.40;2278.40;;;;;;5020423;28;20143;-82
2021/10/10 10:43:18;;;;;;;25.40;19.20;;;282.50;2278.40;;;;;;5034580;28;20013;-82
2021/10/10 10:46:33;;;;;;;19.90;17.13;;;282.40;2278.40;;;;;;5056440;28;20034;-81
2021/10/10 10:49:03;;;;;;;19.48;16.08;;;282.30;2278.40;;;;;;4956103;29;20189;-79
2021/10/10 10:51:30;;;;;;;20.30;15.98;;;282.20;2278.40;;;;;;5012676;28;20034;-77
2021/10/10 10:55:02;;;;;;;23.38;18.65;;;282.20;2278.40;;;;;;5018356;28;20071;-79
2021/10/10 10:57:35;;;;;;;20.23;16.17;;;282.30;2278.40;;;;;;4984545;28;20038;-78
2021/10/10 11:00:12;;;;;;;24.38;20.55;;;282.40;2278.40;;;;;;5018111;28;20068;-84
2021/10/10 11:02:58;;;;;;;22.13;19.05;;;282.50;2278.40;;;;;;5034991;28;20025;-84
2021/10/10 11:06:06;;;;;;;23.25;19.77;;;282.50;2278.40;;;;;;5017958;28;20057;-82
2021/10/10 11:08:42;;;;;;;25.73;20.50;;;307.20;2304.00;;;;;;4997052;28;20436;-79
2021/10/10 11:11:20;;;;;;;23.42;17.27;;;282.40;2278.40;;;;;;5018373;28;20026;-78
2021/10/10 11:14:00;;;;;;;18.20;15.20;;;282.50;2278.40;;;;;;5017905;28;20025;-77
2021/10/10 11:16:41;;;;;;;19.98;16.75;;;282.40;2278.40;;;;;;5018268;28;20068;-80
2021/10/10 11:22:58;;;;;;;19.10;13.05;;;282.30;2278.40;;;;;;4936132;29;20039;-80
2021/10/10 11:25:29;;;;;;;23.02;19.15;;;282.30;2278.40;;;;;;5013590;28;20037;-80
2021/10/10 11:27:55;;;;;;;26.90;21.20;;;282.50;2278.40;;;;;;5017773;28;20080;-77
2021/10/10 11:30:30;;;;;;;23.73;16.20;;;282.20;2278.40;;;;;;5017884;28;20025;-79
2021/10/10 11:32:59;;;;;;;23.88;16.65;;;282.30;2278.40;;;;;;5035377;28;20102;-80
2021/10/10 11:35:54;;;;;;;19.77;13.75;;;282.30;2278.40;;;;;;5017774;28;20091;-84
2021/10/10 11:38:51;;;;;;;27.35;24.40;;;282.40;2278.40;;;;;;5000809;28;20041;-83
2021/10/10 11:42:15;;;;;;;;;;;;;;;;;;;;;
2021/10/10 11:52:19;;;;;;;;;;;;;;;;;;;;;
2021/10/10 11:55:12;;;;;;;26.40;21.63;;;307.30;2304.00;;;;;;4941452;29;20037;-82
2021/10/10 11:58:03;;;;;;;23.33;17.77;;;307.20;2304.00;;;;;;4983714;28;20039;-80
2021/10/10 12:00:39;;;;;;;23.17;18.70;;;307.20;2304.00;;;;;;4996459;28;20037;-81
2021/10/10 12:03:58;;;;;;;26.63;23.23;;;307.20;2304.00;;;;;;4994420;28;20594;-80
2021/10/10 12:09:54;;;;;;;19.25;15.02;;;307.30;2304.00;;;;;;5002875;28;20037;-81
2021/10/10 12:12:28;;;;;;;23.88;21.17;;;307.30;2304.00;;;;;;4989485;28;20057;-83
2021/10/10 12:18:21;;;;;;;34.75;27.48;;;307.40;2304.00;;;;;;4934171;29;20031;-82
2021/10/10 12:21:55;;;;;;;27.40;22.33;;;307.40;2304.00;;;;;;4918417;29;20036;-82
2021/10/10 12:24:23;;;;;;;27.75;22.23;;;307.40;2304.00;;;;;;4858325;29;20027;-80
2021/10/10 12:26:55;;;;;;;31.52;24.02;;;307.40;2304.00;;;;;;4999906;28;20034;-79
2021/10/10 12:30:23;;;;;;;33.90;27.10;;;307.40;2304.00;;;;;;5015511;28;20017;-80
2021/10/10 12:32:49;;;;;;;34.35;24.50;;;307.50;2304.00;;;;;;4964677;28;20033;-83
2021/10/10 12:35:15;;;;;;;38.20;25.17;;;307.50;2304.00;;;;;;5016609;28;20033;-84
2021/10/10 12:41:21;;;;;;;;;;;307.50;2304.00;;;;;;4996079;28;20060;-84
2021/10/10 12:52:12;;;;;;;34.58;27.75;;;307.40;2304.00;;;;;;4820117;29;20031;-86
2021/10/10 12:55:17;;;;;;;36.20;28.40;;;307.40;2304.00;;;;;;4829353;29;20033;-86
2021/10/10 12:58:19;;;;;;;42.85;33.72;;;307.40;2304.00;;;;;;4899135;28;20074;-85
2021/10/10 13:00:55;;;;;;;33.97;27.15;;;307.40;2304.00;;;;;;4996437;28;20117;-82
2021/10/10 13:03:23;;;;;;;36.45;25.95;;;307.40;2304.00;;;;;;5013631;28;20029;-85
2021/10/10 13:05:49;;;;;;;48.75;34.92;;;307.30;2304.00;;;;;;4996183;28;20120;-82
2021/10/10 13:08:21;;;;;;;44.13;31.45;;;307.50;2304.00;;;;;;4996624;28;20116;-85
2021/10/10 13:11:14;;;;;;;50.13;36.80;;;307.50;2304.00;;;;;;4996486;28;20413;-80
2021/10/10 13:13:39;;;;;;;46.72;32.22;;;307.50;2304.00;;;;;;5013685;28;20038;-82
2021/10/10 13:19:36;;;;;;;;;;;;;;;;;;;;;
2021/10/10 13:22:27;;;;;;;32.03;24.13;;;307.20;2304.00;;;;;;4984044;28;20060;-85
2021/10/10 13:25:29;;;;;;;46.58;34.55;;;307.20;2304.00;;;;;;4960900;28;20038;-85
2021/10/10 13:28:05;;;;;;;54.78;38.55;;;307.20;2304.00;;;;;;5013990;28;20034;-84
2021/10/10 13:31:10;;;;;;;;;;;;;;;;;;;;;
2021/10/10 13:33:55;;;;;;;39.35;28.35;;;282.50;2278.40;;;;;;4999374;28;20381;-82
2021/10/10 13:40:06;;;;;;;44.72;32.58;;;282.50;2278.40;;;;;;4876779;29;20068;-86
2021/10/10 13:42:42;;;;;;;38.17;26.53;;;282.50;2278.40;;;;;;4846800;29;20437;-88
2021/10/10 13:45:21;;;;;;;27.88;20.58;;;307.20;2304.00;;;;;;4857483;29;20333;-85
2021/10/10 13:48:10;;;;;;;23.77;17.92;;;307.20;2304.00;;;;;;4878579;29;20100;-85
2021/10/10 13:54:24;;;;;;;41.95;33.05;;;307.20;2304.00;;;;;;4925421;29;20043;-86
2021/10/10 13:56:58;;;;;;;36.45;29.45;;;307.20;2304.00;;;;;;4940100;29;20043;-82
2021/10/10 13:59:34;;;;;;;27.05;20.67;;;307.20;2304.00;;;;;;4941064;29;20218;-80
2021/10/10 14:02:33;;;;;;;22.67;17.48;;;282.50;2278.40;;;;;;4940694;29;20023;-85
2021/10/10 14:05:10;;;;;;;15.52;11.63;;;282.50;2278.40;;;;;;4941017;29;20037;-86
2021/10/10 14:07:36;;;;;;;64.50;57.95;;;282.50;2278.40;;;;;;4940428;29;20154;-85
2021/10/10 14:10:07;;;;;;;34.63;30.95;;;282.50;2278.40;;;;;;4940800;29;20039;-83
2021/10/10 14:13:06;;;;;;;43.95;39.50;;;282.50;2278.40;;;;;;4940894;29;20027;-83
2021/10/10 14:15:38;;;;;;;33.80;30.15;;;282.40;2278.40;;;;;;4950557;28;20067;-85
2021/10/10 14:19:03;;;;;;;22.30;19.97;;;282.40;2278.40;;;;;;5036159;28;20069;-86
2021/10/10 14:21:45;;;;;;;36.95;32.67;;;282.50;2278.40;;;;;;5035871;28;20064;-84
2021/10/10 14:24:51;;;;;;;26.67;20.27;;;282.40;2278.40;;;;;;5002930;28;20030;-85
2021/10/10 14:27:58;;;;;;;31.40;24.95;;;282.40;2278.40;;;;;;5034047;28;20033;-83
2021/10/10 14:31:13;;;;;;;32.55;25.40;;;307.20;2304.00;;;;;;5034785;28;20477;-84
2021/10/10 14:33:39;;;;;;;28.83;22.27;;;307.20;2304.00;;;;;;5035613;28;20037;-84
2021/10/10 14:36:10;;;;;;;48.58;34.70;;;307.30;2304.00;;;;;;5017564;28;20025;-83
2021/10/10 14:38:37;;;;;;;45.33;33.13;;;307.30;2304.00;;;;;;5003273;28;20545;-84
2021/10/10 14:42:06;;;;;;;;;;;;;;;;;;;;;
2021/10/10 14:44:53;;;;;;;43.92;35.58;;;282.50;2278.40;;;;;;5001159;28;20033;-82
2021/10/10 14:50:31;;;;;;;48.53;29.17;;;307.20;2304.00;;;;;;5036373;28;20048;-83
2021/10/10 14:56:09;;;;;;;40.53;31.58;;;307.20;2304.00;;;;;;5016565;28;20045;-84
2021/10/10 14:58:44;;;;;;;22.77;19.08;;;282.50;2278.40;;;;;;5017884;28;20393;-86
2021/10/10 15:01:56;;;;;;;49.40;35.13;;;282.50;2278.40;;;;;;5015489;28;20500;-84
2021/10/10 15:04:45;;;;;;;33.08;26.27;;;282.40;2278.40;;;;;;5018723;28;20087;-86
2021/10/10 15:10:53;;;;;;;79.68;56.83;;;282.50;2278.40;;;;;;5004864;28;20447;-82
2021/10/10 15:13:23;;;;;;;53.83;40.45;;;307.20;2304.00;;;;;;5014848;28;20029;-84
2021/10/10 15:16:13;;;;;;;64.88;50.28;;;282.50;2278.40;;;;;;5018309;28;20029;-82
2021/10/10 15:19:09;;;;;;;52.38;44.83;;;307.20;2304.00;;;;;;5037535;28;20384;-81
2021/10/10 15:21:36;;;;;;;33.38;24.48;;;307.20;2304.00;;;;;;5021380;28;20060;-81
2021/10/10 15:24:05;;;;;;;32.70;24.23;;;282.20;2278.40;;;;;;5003417;28;20026;-82
2021/10/10 15:27:13;;;;;;;25.90;18.70;;;282.40;2278.40;;;;;;5019157;28;20021;-85
2021/10/10 15:30:36;;;;;;;23.17;16.90;;;282.30;2278.40;;;;;;5024674;28;20079;-84
2021/10/10 15:33:02;;;;;;;23.70;19.45;;;282.50;2278.40;;;;;;4954797;29;20035;-83
2021/10/10 15:36:00;;;;;;;29.45;22.77;;;282.30;2278.40;;;;;;4939454;29;20380;-81
2021/10/10 15:39:14;;;;;;;37.28;27.38;;;282.40;2278.40;;;;;;4955057;28;20063;-83
2021/10/10 15:42:31;;;;;;;;;;;;;;;;;;;;;
2021/10/10 15:45:39;;;;;;;;;;;;;;;;;;;;;
2021/10/10 15:48:20;;;;;;;24.75;19.25;;;282.40;2278.40;;;;;;4947223;29;20031;-85
2021/10/10 15:50:46;;;;;;;22.17;16.92;;;282.50;2278.40;;;;;;4998562;28;20131;-85
2021/10/10 15:56:10;;;;;;;65.68;36.53;;;282.50;2278.40;;;;;;4993491;28;20097;-84
2021/10/10 15:59:41;;;;;;;69.70;40.80;;;282.40;2278.40;;;;;;4993726;28;20033;-84
2021/10/10 16:02:59;;;;;;;67.35;42.60;;;282.30;2278.40;;;;;;4919038;28;20061;-81
2021/10/10 16:06:13;;;;;;;41.42;26.83;;;282.40;2278.40;;;;;;4962122;28;20402;-83
2021/10/10 16:09:50;;;;;;;40.38;28.05;;;282.40;2278.40;;;;;;4993268;28;20612;-84
2021/10/10 16:12:38;;;;;;;38.80;31.40;;;282.50;2278.40;;;;;;4992888;28;20069;-80
2021/10/10 16:15:15;;;;;;;34.33;24.17;;;282.50;2278.40;;;;;;5018467;28;20040;-80
2021/10/10 16:17:48;;;;;;;26.60;23.45;;;282.30;2278.40;;;;;;5016925;28;20033;-84
2021/10/10 16:21:07;;;;;;;33.88;24.13;;;282.30;2278.40;;;;;;5028946;28;20478;-83
2021/10/10 16:23:47;;;;;;;39.53;27.67;;;282.40;2278.40;;;;;;5020039;28;20037;-85
2021/10/10 16:26:49;;;;;;;;;;;;;;;;;;;;;
2021/10/10 16:29:31;;;;;;;29.27;21.90;;;282.40;2278.40;;;;;;5014517;28;20371;-86
2021/10/10 16:32:14;;;;;;;26.70;20.42;;;282.40;2278.40;;;;;;5033505;28;20033;-83